Hauptseite
METAR-TAF:

METAR-TAF

Flughäfen :

Flughafen Tabarka-Aïn Draham

Tabarka, Tunesien

Breite: 36-57N, Länge: 008-45E, Höhe: 20 m

Beobachtung

Neuester Wetterbericht von vor 48 Minuten, um 07:00 UTC
Wind 3 kt aus Ost/Nordost, variierte zwischen Nord/Nordost und Ost
Temperatur 9°C
Luftfeuchtigkeit 100%
Luftdruck 1022 hPa
Sichtweite 10 km oder mehr
Leicht bewölkt in der Höhe von 2000 ft

METAR: DTKA 240700Z 06003KT 020V080 9999 FEW020 09/09 Q1022 NOSIG

Zeit: 08:48 (07:48 UTC)

Prognose

Neuester Wetterbericht von vor 1 Stunde und 48 Minuten, um 06:00 UTC
Gültige Prognose vom 24 um 07 UTC bis 24 um 16 UTC
Wind 3 kt aus Ost/Südost
Sichtweite 10 km oder mehr
Leicht bewölkt in der Höhe von 2000 ft
Übergehend zu
vom 24 um 08 UTC bis 24 um 10 UTC
Wind 4 kt aus Nord/Nordwest

TAF: DTKA 240600Z 2407/2416 12003KT 9999 FEW020 BECMG 2408/2410 34004KT

Wetterbeobachtungen und Prognosen von mehr als 4000 Flughäfen (METAR und TAF Bericht).

Die verfügbaren Stationen werden durch gelbe und rote Markierungen auf der Karte dargestellt.

Führen Sie die Maus auf sie, um den Namen der Station zu sehen.

Darauf klicken, um die Beobachtung von Wetterbeobachtungen und Prognosen zu sehen.

Um die Karte zu ändern : klicken Sie auf den grünen Tasten mit einem schwarzen Kreuz Zum Vergrößern, auf den grünen Button mit einem Gedankenstrich zu verkleinern, oder auf die grünen Pfeile für benachbarte Karten.


METAR-TAF: